sensor_id;sensor_type;location;lat;lon;timestamp;P1;P2;P0
62631;PMS5003;48703;51.248;-0.546;2022-12-29T00:02:13;5.57;3.10;
62631;PMS5003;48703;51.248;-0.546;2022-12-29T00:05:14;3.03;2.17;
62631;PMS5003;48703;51.248;-0.546;2022-12-29T00:08:15;3.21;2.49;
62631;PMS5003;48703;51.248;-0.546;2022-12-29T00:11:18;3.23;2.66;
62631;PMS5003;48703;51.248;-0.546;2022-12-29T00:14:19;4.70;2.89;
62631;PMS5003;48703;51.248;-0.546;2022-12-29T00:17:20;1.46;1.31;
62631;PMS5003;48703;51.248;-0.546;2022-12-29T00:20:21;4.07;2.09;
62631;PMS5003;48703;51.248;-0.546;2022-12-29T00:23:23;6.26;4.84;
62631;PMS5003;48703;51.248;-0.546;2022-12-29T00:26:25;3.69;2.19;
62631;PMS5003;48703;51.248;-0.546;2022-12-29T00:29:27;4.00;2.14;
62631;PMS5003;48703;51.248;-0.546;2022-12-29T00:32:28;2.59;2.34;
62631;PMS5003;48703;51.248;-0.546;2022-12-29T00:35:30;4.43;2.74;
62631;PMS5003;48703;51.248;-0.546;2022-12-29T00:38:31;4.62;4.17;
62631;PMS5003;48703;51.248;-0.546;2022-12-29T00:41:32;3.57;2.89;
62631;PMS5003;48703;51.248;-0.546;2022-12-29T00:44:34;4.54;2.59;
62631;PMS5003;48703;51.248;-0.546;2022-12-29T00:47:36;5.57;2.91;
62631;PMS5003;48703;51.248;-0.546;2022-12-29T00:50:37;3.51;2.54;
62631;PMS5003;48703;51.248;-0.546;2022-12-29T00:53:38;4.77;3.10;
62631;PMS5003;48703;51.248;-0.546;2022-12-29T00:56:40;5.63;3.96;
62631;PMS5003;48703;51.248;-0.546;2022-12-29T00:59:42;4.86;3.74;
62631;PMS5003;48703;51.248;-0.546;2022-12-29T01:02:44;6.58;4.17;
62631;PMS5003;48703;51.248;-0.546;2022-12-29T01:05:45;3.47;2.87;
62631;PMS5003;48703;51.248;-0.546;2022-12-29T01:08:47;6.04;3.41;
62631;PMS5003;48703;51.248;-0.546;2022-12-29T01:11:48;4.30;2.10;
62631;PMS5003;48703;51.248;-0.546;2022-12-29T01:14:50;4.64;2.83;
62631;PMS5003;48703;51.248;-0.546;2022-12-29T01:17:51;3.77;1.54;
62631;PMS5003;48703;51.248;-0.546;2022-12-29T01:20:58;4.39;3.10;
62631;PMS5003;48703;51.248;-0.546;2022-12-29T01:23:55;4.36;3.19;
62631;PMS5003;48703;51.248;-0.546;2022-12-29T01:26:56;5.51;4.41;
62631;PMS5003;48703;51.248;-0.546;2022-12-29T01:29:58;3.41;2.67;
62631;PMS5003;48703;51.248;-0.546;2022-12-29T01:33:00;6.09;2.90;
62631;PMS5003;48703;51.248;-0.546;2022-12-29T01:36:02;4.34;2.80;
62631;PMS5003;48703;51.248;-0.546;2022-12-29T01:39:03;5.64;4.62;
62631;PMS5003;48703;51.248;-0.546;2022-12-29T01:42:04;2.74;2.04;
62631;PMS5003;48703;51.248;-0.546;2022-12-29T01:45:13;5.87;3.26;
62631;PMS5003;48703;51.248;-0.546;2022-12-29T01:48:08;4.09;2.81;
62631;PMS5003;48703;51.248;-0.546;2022-12-29T01:51:09;3.60;2.90;
62631;PMS5003;48703;51.248;-0.546;2022-12-29T01:54:12;3.39;2.70;
62631;PMS5003;48703;51.248;-0.546;2022-12-29T01:57:13;3.74;2.44;
62631;PMS5003;48703;51.248;-0.546;2022-12-29T02:00:15;3.50;2.47;
62631;PMS5003;48703;51.248;-0.546;2022-12-29T02:03:16;3.30;2.39;
62631;PMS5003;48703;51.248;-0.546;2022-12-29T02:06:18;6.10;2.84;
62631;PMS5003;48703;51.248;-0.546;2022-12-29T02:09:18;5.37;4.23;
62631;PMS5003;48703;51.248;-0.546;2022-12-29T02:12:20;5.01;3.53;
62631;PMS5003;48703;51.248;-0.546;2022-12-29T02:15:21;3.96;2.74;
62631;PMS5003;48703;51.248;-0.546;2022-12-29T02:18:26;7.84;5.53;
62631;PMS5003;48703;51.248;-0.546;2022-12-29T02:21:36;6.67;4.10;
62631;PMS5003;48703;51.248;-0.546;2022-12-29T02:24:32;5.56;4.67;
62631;PMS5003;48703;51.248;-0.546;2022-12-29T02:28:03;8.01;5.17;
62631;PMS5003;48703;51.248;-0.546;2022-12-29T02:30:38;6.01;4.76;
62631;PMS5003;48703;51.248;-0.546;2022-12-29T02:33:33;5.83;3.60;
62631;PMS5003;48703;51.248;-0.546;2022-12-29T02:36:32;5.89;4.37;
62631;PMS5003;48703;51.248;-0.546;2022-12-29T02:39:34;6.96;4.75;
62631;PMS5003;48703;51.248;-0.546;2022-12-29T02:42:35;6.64;4.91;
62631;PMS5003;48703;51.248;-0.546;2022-12-29T02:45:37;7.61;3.21;
62631;PMS5003;48703;51.248;-0.546;2022-12-29T02:48:39;7.97;5.17;
62631;PMS5003;48703;51.248;-0.546;2022-12-29T02:51:41;6.67;3.93;
62631;PMS5003;48703;51.248;-0.546;2022-12-29T02:54:41;7.09;4.44;
62631;PMS5003;48703;51.248;-0.546;2022-12-29T02:57:43;6.80;4.29;
62631;PMS5003;48703;51.248;-0.546;2022-12-29T03:00:48;4.04;3.60;
62631;PMS5003;48703;51.248;-0.546;2022-12-29T03:03:48;4.07;2.47;
62631;PMS5003;48703;51.248;-0.546;2022-12-29T03:06:51;5.79;2.56;
62631;PMS5003;48703;51.248;-0.546;2022-12-29T03:09:52;7.01;4.10;
62631;PMS5003;48703;51.248;-0.546;2022-12-29T03:12:53;6.37;4.64;
62631;PMS5003;48703;51.248;-0.546;2022-12-29T03:15:54;5.80;5.10;
62631;PMS5003;48703;51.248;-0.546;2022-12-29T03:18:56;6.31;4.41;
62631;PMS5003;48703;51.248;-0.546;2022-12-29T03:21:56;6.62;4.62;
62631;PMS5003;48703;51.248;-0.546;2022-12-29T03:24:59;7.09;4.01;
62631;PMS5003;48703;51.248;-0.546;2022-12-29T03:28:00;6.41;3.67;
62631;PMS5003;48703;51.248;-0.546;2022-12-29T03:31:00;7.16;5.12;
62631;PMS5003;48703;51.248;-0.546;2022-12-29T03:34:02;7.64;4.19;
62631;PMS5003;48703;51.248;-0.546;2022-12-29T03:37:05;5.80;4.58;
62631;PMS5003;48703;51.248;-0.546;2022-12-29T03:40:05;5.43;3.11;
62631;PMS5003;48703;51.248;-0.546;2022-12-29T03:43:07;7.51;5.47;
62631;PMS5003;48703;51.248;-0.546;2022-12-29T03:46:08;7.00;3.94;
62631;PMS5003;48703;51.248;-0.546;2022-12-29T03:49:10;6.96;4.68;
62631;PMS5003;48703;51.248;-0.546;2022-12-29T03:52:11;5.31;3.27;
62631;PMS5003;48703;51.248;-0.546;2022-12-29T03:55:13;5.14;3.06;
62631;PMS5003;48703;51.248;-0.546;2022-12-29T03:58:15;5.49;3.17;
62631;PMS5003;48703;51.248;-0.546;2022-12-29T04:01:16;6.50;4.13;
62631;PMS5003;48703;51.248;-0.546;2022-12-29T04:04:18;7.57;4.80;
62631;PMS5003;48703;51.248;-0.546;2022-12-29T04:07:19;6.61;4.72;
62631;PMS5003;48703;51.248;-0.546;2022-12-29T04:10:21;4.20;2.96;
62631;PMS5003;48703;51.248;-0.546;2022-12-29T04:13:22;4.49;3.20;
62631;PMS5003;48703;51.248;-0.546;2022-12-29T04:16:23;6.22;4.59;
62631;PMS5003;48703;51.248;-0.546;2022-12-29T04:19:25;6.22;3.87;
62631;PMS5003;48703;51.248;-0.546;2022-12-29T04:22:26;5.54;4.25;
62631;PMS5003;48703;51.248;-0.546;2022-12-29T04:25:27;4.57;2.59;
62631;PMS5003;48703;51.248;-0.546;2022-12-29T04:28:29;7.20;4.77;
62631;PMS5003;48703;51.248;-0.546;2022-12-29T04:31:30;8.94;4.04;
62631;PMS5003;48703;51.248;-0.546;2022-12-29T04:34:32;6.89;5.34;
62631;PMS5003;48703;51.248;-0.546;2022-12-29T04:37:33;6.00;4.64;
62631;PMS5003;48703;51.248;-0.546;2022-12-29T04:40:35;5.64;4.30;
62631;PMS5003;48703;51.248;-0.546;2022-12-29T04:43:36;6.56;4.59;
62631;PMS5003;48703;51.248;-0.546;2022-12-29T04:46:38;5.66;4.51;
62631;PMS5003;48703;51.248;-0.546;2022-12-29T04:49:39;4.76;3.53;
62631;PMS5003;48703;51.248;-0.546;2022-12-29T04:52:41;7.64;5.19;
62631;PMS5003;48703;51.248;-0.546;2022-12-29T04:55:42;5.77;3.61;
62631;PMS5003;48703;51.248;-0.546;2022-12-29T04:58:44;7.69;4.61;
62631;PMS5003;48703;51.248;-0.546;2022-12-29T05:01:45;6.06;3.81;
62631;PMS5003;48703;51.248;-0.546;2022-12-29T05:04:47;5.63;3.47;
62631;PMS5003;48703;51.248;-0.546;2022-12-29T05:07:49;4.57;4.06;
62631;PMS5003;48703;51.248;-0.546;2022-12-29T05:10:50;4.93;4.50;
62631;PMS5003;48703;51.248;-0.546;2022-12-29T05:13:52;6.07;3.76;
62631;PMS5003;48703;51.248;-0.546;2022-12-29T05:16:53;4.17;3.40;
62631;PMS5003;48703;51.248;-0.546;2022-12-29T05:19:54;6.52;4.38;
62631;PMS5003;48703;51.248;-0.546;2022-12-29T05:22:56;2.31;1.93;
62631;PMS5003;48703;51.248;-0.546;2022-12-29T05:25:58;4.53;3.10;
62631;PMS5003;48703;51.248;-0.546;2022-12-29T05:28:59;6.19;4.10;
62631;PMS5003;48703;51.248;-0.546;2022-12-29T05:32:01;2.73;2.26;
62631;PMS5003;48703;51.248;-0.546;2022-12-29T05:35:03;3.11;1.26;
62631;PMS5003;48703;51.248;-0.546;2022-12-29T05:38:04;2.87;1.79;
62631;PMS5003;48703;51.248;-0.546;2022-12-29T05:41:06;3.20;2.19;
62631;PMS5003;48703;51.248;-0.546;2022-12-29T05:44:09;2.47;2.47;
62631;PMS5003;48703;51.248;-0.546;2022-12-29T05:47:09;2.73;2.11;
62631;PMS5003;48703;51.248;-0.546;2022-12-29T05:50:11;2.87;1.74;
62631;PMS5003;48703;51.248;-0.546;2022-12-29T05:53:13;1.14;0.54;
62631;PMS5003;48703;51.248;-0.546;2022-12-29T05:56:14;1.03;0.80;
62631;PMS5003;48703;51.248;-0.546;2022-12-29T05:59:16;2.23;0.97;
62631;PMS5003;48703;51.248;-0.546;2022-12-29T06:02:17;0.79;0.43;
62631;PMS5003;48703;51.248;-0.546;2022-12-29T06:05:19;1.29;1.29;
62631;PMS5003;48703;51.248;-0.546;2022-12-29T06:08:21;2.56;1.31;
62631;PMS5003;48703;51.248;-0.546;2022-12-29T06:11:22;0.97;0.40;
62631;PMS5003;48703;51.248;-0.546;2022-12-29T06:14:24;0.49;0.46;
62631;PMS5003;48703;51.248;-0.546;2022-12-29T06:17:26;0.83;0.83;
62631;PMS5003;48703;51.248;-0.546;2022-12-29T06:20:27;0.19;0.19;
62631;PMS5003;48703;51.248;-0.546;2022-12-29T06:23:29;1.94;0.66;
62631;PMS5003;48703;51.248;-0.546;2022-12-29T06:26:31;0.20;0.17;
62631;PMS5003;48703;51.248;-0.546;2022-12-29T06:29:32;0.83;0.80;
62631;PMS5003;48703;51.248;-0.546;2022-12-29T06:32:34;1.43;1.03;
62631;PMS5003;48703;51.248;-0.546;2022-12-29T06:35:36;0.79;0.40;
62631;PMS5003;48703;51.248;-0.546;2022-12-29T06:38:37;0.31;0.31;
62631;PMS5003;48703;51.248;-0.546;2022-12-29T06:41:39;2.11;1.50;
62631;PMS5003;48703;51.248;-0.546;2022-12-29T06:44:41;1.09;1.09;
62631;PMS5003;48703;51.248;-0.546;2022-12-29T06:47:42;1.33;0.83;
62631;PMS5003;48703;51.248;-0.546;2022-12-29T06:50:44;0.53;0.53;
62631;PMS5003;48703;51.248;-0.546;2022-12-29T06:53:46;0.67;0.54;
62631;PMS5003;48703;51.248;-0.546;2022-12-29T06:56:47;1.13;0.21;
62631;PMS5003;48703;51.248;-0.546;2022-12-29T06:59:49;1.41;0.81;
62631;PMS5003;48703;51.248;-0.546;2022-12-29T07:02:51;2.21;0.80;
62631;PMS5003;48703;51.248;-0.546;2022-12-29T07:05:52;1.61;0.40;
62631;PMS5003;48703;51.248;-0.546;2022-12-29T07:08:54;1.16;0.73;
62631;PMS5003;48703;51.248;-0.546;2022-12-29T07:11:56;0.80;0.51;
62631;PMS5003;48703;51.248;-0.546;2022-12-29T07:14:57;1.59;0.89;
62631;PMS5003;48703;51.248;-0.546;2022-12-29T07:17:59;0.26;0.26;
62631;PMS5003;48703;51.248;-0.546;2022-12-29T07:21:01;0.54;0.54;
62631;PMS5003;48703;51.248;-0.546;2022-12-29T07:24:02;0.63;0.63;
62631;PMS5003;48703;51.248;-0.546;2022-12-29T07:27:04;1.04;0.30;
62631;PMS5003;48703;51.248;-0.546;2022-12-29T07:30:06;0.71;0.71;
62631;PMS5003;48703;51.248;-0.546;2022-12-29T07:33:07;0.83;0.37;
62631;PMS5003;48703;51.248;-0.546;2022-12-29T07:36:09;0.57;0.00;
62631;PMS5003;48703;51.248;-0.546;2022-12-29T07:39:11;0.59;0.00;
62631;PMS5003;48703;51.248;-0.546;2022-12-29T07:42:12;1.90;1.16;
62631;PMS5003;48703;51.248;-0.546;2022-12-29T07:45:14;0.91;0.75;
62631;PMS5003;48703;51.248;-0.546;2022-12-29T07:48:15;0.14;0.14;
62631;PMS5003;48703;51.248;-0.546;2022-12-29T07:51:17;0.44;0.44;
62631;PMS5003;48703;51.248;-0.546;2022-12-29T07:54:19;1.99;1.11;
62631;PMS5003;48703;51.248;-0.546;2022-12-29T07:57:20;0.77;0.34;
62631;PMS5003;48703;51.248;-0.546;2022-12-29T08:00:22;0.97;0.53;
62631;PMS5003;48703;51.248;-0.546;2022-12-29T08:03:24;0.99;0.99;
62631;PMS5003;48703;51.248;-0.546;2022-12-29T08:06:25;1.59;0.61;
62631;PMS5003;48703;51.248;-0.546;2022-12-29T08:09:27;0.06;0.04;
62631;PMS5003;48703;51.248;-0.546;2022-12-29T08:12:29;0.79;0.79;
62631;PMS5003;48703;51.248;-0.546;2022-12-29T08:15:30;1.09;0.69;
62631;PMS5003;48703;51.248;-0.546;2022-12-29T08:18:32;1.30;0.39;
62631;PMS5003;48703;51.248;-0.546;2022-12-29T08:21:34;1.09;0.49;
62631;PMS5003;48703;51.248;-0.546;2022-12-29T08:24:35;1.96;1.56;
62631;PMS5003;48703;51.248;-0.546;2022-12-29T08:27:37;2.10;1.37;
62631;PMS5003;48703;51.248;-0.546;2022-12-29T08:30:39;1.66;1.14;
62631;PMS5003;48703;51.248;-0.546;2022-12-29T08:33:40;1.43;0.09;
62631;PMS5003;48703;51.248;-0.546;2022-12-29T08:36:42;2.70;1.29;
62631;PMS5003;48703;51.248;-0.546;2022-12-29T08:39:43;1.63;1.03;
62631;PMS5003;48703;51.248;-0.546;2022-12-29T08:42:45;0.54;0.50;
62631;PMS5003;48703;51.248;-0.546;2022-12-29T08:45:47;1.24;0.90;
62631;PMS5003;48703;51.248;-0.546;2022-12-29T08:48:48;0.49;0.49;
62631;PMS5003;48703;51.248;-0.546;2022-12-29T08:51:50;0.87;0.87;
62631;PMS5003;48703;51.248;-0.546;2022-12-29T08:54:52;0.39;0.39;
62631;PMS5003;48703;51.248;-0.546;2022-12-29T08:57:53;1.41;0.80;
62631;PMS5003;48703;51.248;-0.546;2022-12-29T09:00:55;1.31;0.46;
62631;PMS5003;48703;51.248;-0.546;2022-12-29T09:03:57;2.84;1.11;
62631;PMS5003;48703;51.248;-0.546;2022-12-29T09:06:58;0.67;0.67;
62631;PMS5003;48703;51.248;-0.546;2022-12-29T09:10:00;1.37;0.57;
62631;PMS5003;48703;51.248;-0.546;2022-12-29T09:13:02;0.07;0.00;
62631;PMS5003;48703;51.248;-0.546;2022-12-29T09:16:04;1.66;1.03;
62631;PMS5003;48703;51.248;-0.546;2022-12-29T09:19:05;1.07;1.07;
62631;PMS5003;48703;51.248;-0.546;2022-12-29T09:22:07;0.50;0.50;
62631;PMS5003;48703;51.248;-0.546;2022-12-29T09:25:09;0.74;0.74;
62631;PMS5003;48703;51.248;-0.546;2022-12-29T09:28:10;0.63;0.14;
62631;PMS5003;48703;51.248;-0.546;2022-12-29T09:31:12;1.11;1.04;
62631;PMS5003;48703;51.248;-0.546;2022-12-29T09:34:14;1.63;0.76;
62631;PMS5003;48703;51.248;-0.546;2022-12-29T09:37:15;0.87;0.44;
62631;PMS5003;48703;51.248;-0.546;2022-12-29T09:40:21;0.03;0.03;
62631;PMS5003;48703;51.248;-0.546;2022-12-29T09:43:24;0.67;0.07;
62631;PMS5003;48703;51.248;-0.546;2022-12-29T09:46:23;0.16;0.16;
62631;PMS5003;48703;51.248;-0.546;2022-12-29T09:49:24;0.89;0.26;
62631;PMS5003;48703;51.248;-0.546;2022-12-29T09:52:25;1.16;0.46;
62631;PMS5003;48703;51.248;-0.546;2022-12-29T09:55:26;1.03;0.83;
62631;PMS5003;48703;51.248;-0.546;2022-12-29T09:58:28;0.67;0.43;
62631;PMS5003;48703;51.248;-0.546;2022-12-29T10:01:30;0.56;0.17;
62631;PMS5003;48703;51.248;-0.546;2022-12-29T10:04:30;0.54;0.54;
62631;PMS5003;48703;51.248;-0.546;2022-12-29T10:07:36;1.07;0.17;
62631;PMS5003;48703;51.248;-0.546;2022-12-29T10:10:35;0.94;0.94;
62631;PMS5003;48703;51.248;-0.546;2022-12-29T10:13:38;1.14;0.69;
62631;PMS5003;48703;51.248;-0.546;2022-12-29T10:16:38;0.46;0.11;
62631;PMS5003;48703;51.248;-0.546;2022-12-29T10:19:42;0.30;0.30;
62631;PMS5003;48703;51.248;-0.546;2022-12-29T10:22:45;0.17;0.17;
62631;PMS5003;48703;51.248;-0.546;2022-12-29T10:25:42;0.43;0.00;
62631;PMS5003;48703;51.248;-0.546;2022-12-29T10:28:44;1.60;0.14;
62631;PMS5003;48703;51.248;-0.546;2022-12-29T10:31:46;0.54;0.33;
62631;PMS5003;48703;51.248;-0.546;2022-12-29T10:34:48;0.37;0.37;
62631;PMS5003;48703;51.248;-0.546;2022-12-29T10:37:50;0.34;0.34;
62631;PMS5003;48703;51.248;-0.546;2022-12-29T10:40:51;0.47;0.39;
62631;PMS5003;48703;51.248;-0.546;2022-12-29T10:43:53;1.74;1.39;
62631;PMS5003;48703;51.248;-0.546;2022-12-29T10:46:55;1.00;0.50;
62631;PMS5003;48703;51.248;-0.546;2022-12-29T10:49:55;1.07;0.00;
62631;PMS5003;48703;51.248;-0.546;2022-12-29T10:52:57;0.43;0.43;
62631;PMS5003;48703;51.248;-0.546;2022-12-29T10:55:58;1.26;0.43;
62631;PMS5003;48703;51.248;-0.546;2022-12-29T10:59:03;0.51;0.51;
62631;PMS5003;48703;51.248;-0.546;2022-12-29T11:02:06;1.00;0.81;
62631;PMS5003;48703;51.248;-0.546;2022-12-29T11:05:05;0.80;0.20;
62631;PMS5003;48703;51.248;-0.546;2022-12-29T11:08:08;0.87;0.39;
62631;PMS5003;48703;51.248;-0.546;2022-12-29T11:11:08;0.80;0.27;
62631;PMS5003;48703;51.248;-0.546;2022-12-29T11:14:11;1.56;1.47;
62631;PMS5003;48703;51.248;-0.546;2022-12-29T11:17:14;1.31;0.56;
62631;PMS5003;48703;51.248;-0.546;2022-12-29T11:20:24;1.47;1.19;
62631;PMS5003;48703;51.248;-0.546;2022-12-29T11:23:22;2.16;0.89;
62631;PMS5003;48703;51.248;-0.546;2022-12-29T11:26:16;1.96;1.23;
62631;PMS5003;48703;51.248;-0.546;2022-12-29T11:29:17;1.46;0.69;
62631;PMS5003;48703;51.248;-0.546;2022-12-29T11:32:19;0.94;0.64;
62631;PMS5003;48703;51.248;-0.546;2022-12-29T11:35:29;1.04;0.70;
62631;PMS5003;48703;51.248;-0.546;2022-12-29T11:38:22;0.47;0.47;
62631;PMS5003;48703;51.248;-0.546;2022-12-29T11:41:24;2.43;1.68;
62631;PMS5003;48703;51.248;-0.546;2022-12-29T11:44:24;1.59;1.11;
62631;PMS5003;48703;51.248;-0.546;2022-12-29T11:47:26;2.06;1.29;
62631;PMS5003;48703;51.248;-0.546;2022-12-29T11:50:29;1.53;1.53;
62631;PMS5003;48703;51.248;-0.546;2022-12-29T11:53:31;1.96;1.44;
62631;PMS5003;48703;51.248;-0.546;2022-12-29T11:56:33;0.51;0.51;
62631;PMS5003;48703;51.248;-0.546;2022-12-29T11:59:37;2.80;1.49;
62631;PMS5003;48703;51.248;-0.546;2022-12-29T12:02:36;4.24;2.21;
62631;PMS5003;48703;51.248;-0.546;2022-12-29T12:05:37;2.63;1.64;
62631;PMS5003;48703;51.248;-0.546;2022-12-29T12:08:38;1.89;1.41;
62631;PMS5003;48703;51.248;-0.546;2022-12-29T12:11:39;2.60;1.06;
62631;PMS5003;48703;51.248;-0.546;2022-12-29T12:14:43;1.94;1.16;
62631;PMS5003;48703;51.248;-0.546;2022-12-29T12:17:44;2.29;1.31;
62631;PMS5003;48703;51.248;-0.546;2022-12-29T12:20:45;3.10;1.69;
62631;PMS5003;48703;51.248;-0.546;2022-12-29T12:23:53;2.96;2.10;
62631;PMS5003;48703;51.248;-0.546;2022-12-29T12:26:53;2.26;1.74;
62631;PMS5003;48703;51.248;-0.546;2022-12-29T12:29:50;1.51;1.51;
62631;PMS5003;48703;51.248;-0.546;2022-12-29T12:32:53;2.91;2.63;
62631;PMS5003;48703;51.248;-0.546;2022-12-29T12:35:57;3.10;2.24;
62631;PMS5003;48703;51.248;-0.546;2022-12-29T12:38:55;2.19;1.47;
62631;PMS5003;48703;51.248;-0.546;2022-12-29T12:41:59;3.30;2.19;
62631;PMS5003;48703;51.248;-0.546;2022-12-29T12:45:02;3.77;3.00;
62631;PMS5003;48703;51.248;-0.546;2022-12-29T12:48:01;1.40;1.17;
62631;PMS5003;48703;51.248;-0.546;2022-12-29T12:51:02;1.83;0.87;
62631;PMS5003;48703;51.248;-0.546;2022-12-29T12:54:06;3.97;3.21;
62631;PMS5003;48703;51.248;-0.546;2022-12-29T12:57:07;2.97;2.59;
62631;PMS5003;48703;51.248;-0.546;2022-12-29T13:00:07;2.90;2.49;
62631;PMS5003;48703;51.248;-0.546;2022-12-29T13:03:09;2.79;2.07;
62631;PMS5003;48703;51.248;-0.546;2022-12-29T13:06:12;1.83;1.57;
62631;PMS5003;48703;51.248;-0.546;2022-12-29T13:09:29;3.16;2.26;
62631;PMS5003;48703;51.248;-0.546;2022-12-29T13:12:16;2.86;2.17;
62631;PMS5003;48703;51.248;-0.546;2022-12-29T13:15:17;2.57;2.27;
62631;PMS5003;48703;51.248;-0.546;2022-12-29T13:18:18;3.11;1.56;
62631;PMS5003;48703;51.248;-0.546;2022-12-29T13:21:20;3.46;2.53;
62631;PMS5003;48703;51.248;-0.546;2022-12-29T13:24:20;4.81;1.90;
62631;PMS5003;48703;51.248;-0.546;2022-12-29T13:27:21;5.63;2.76;
62631;PMS5003;48703;51.248;-0.546;2022-12-29T13:30:22;2.71;1.91;
62631;PMS5003;48703;51.248;-0.546;2022-12-29T13:33:24;3.99;2.74;
62631;PMS5003;48703;51.248;-0.546;2022-12-29T13:36:27;5.04;2.81;
62631;PMS5003;48703;51.248;-0.546;2022-12-29T13:39:27;2.87;2.27;
62631;PMS5003;48703;51.248;-0.546;2022-12-29T13:42:28;3.36;3.13;
62631;PMS5003;48703;51.248;-0.546;2022-12-29T13:45:31;2.24;1.81;
62631;PMS5003;48703;51.248;-0.546;2022-12-29T13:48:35;3.66;2.96;
62631;PMS5003;48703;51.248;-0.546;2022-12-29T13:51:34;3.50;1.43;
62631;PMS5003;48703;51.248;-0.546;2022-12-29T13:54:37;3.50;1.97;
62631;PMS5003;48703;51.248;-0.546;2022-12-29T13:57:39;2.69;1.87;
62631;PMS5003;48703;51.248;-0.546;2022-12-29T14:00:42;5.41;2.67;
62631;PMS5003;48703;51.248;-0.546;2022-12-29T14:03:43;3.20;2.94;
62631;PMS5003;48703;51.248;-0.546;2022-12-29T14:06:41;2.79;0.99;
62631;PMS5003;48703;51.248;-0.546;2022-12-29T14:09:45;2.37;2.11;
62631;PMS5003;48703;51.248;-0.546;2022-12-29T14:12:45;3.03;1.53;
62631;PMS5003;48703;51.248;-0.546;2022-12-29T14:15:50;3.14;1.51;
62631;PMS5003;48703;51.248;-0.546;2022-12-29T14:18:48;2.50;1.19;
62631;PMS5003;48703;51.248;-0.546;2022-12-29T14:21:50;1.63;1.29;
62631;PMS5003;48703;51.248;-0.546;2022-12-29T14:24:51;2.21;1.44;
62631;PMS5003;48703;51.248;-0.546;2022-12-29T14:27:53;3.19;2.03;
62631;PMS5003;48703;51.248;-0.546;2022-12-29T14:30:55;2.40;1.84;
62631;PMS5003;48703;51.248;-0.546;2022-12-29T14:34:30;1.86;1.41;
62631;PMS5003;48703;51.248;-0.546;2022-12-29T14:36:58;2.13;1.83;
62631;PMS5003;48703;51.248;-0.546;2022-12-29T14:40:02;2.97;2.63;
62631;PMS5003;48703;51.248;-0.546;2022-12-29T14:43:01;1.81;1.29;
62631;PMS5003;48703;51.248;-0.546;2022-12-29T14:46:03;2.29;1.36;
62631;PMS5003;48703;51.248;-0.546;2022-12-29T14:49:04;1.40;0.94;
62631;PMS5003;48703;51.248;-0.546;2022-12-29T14:52:07;3.54;1.84;
62631;PMS5003;48703;51.248;-0.546;2022-12-29T14:55:40;1.70;1.66;
62631;PMS5003;48703;51.248;-0.546;2022-12-29T14:58:12;1.30;1.30;
62631;PMS5003;48703;51.248;-0.546;2022-12-29T15:01:15;3.00;2.36;
62631;PMS5003;48703;51.248;-0.546;2022-12-29T15:04:14;2.14;1.24;
62631;PMS5003;48703;51.248;-0.546;2022-12-29T15:07:14;2.39;2.11;
62631;PMS5003;48703;51.248;-0.546;2022-12-29T15:10:16;4.01;2.64;
62631;PMS5003;48703;51.248;-0.546;2022-12-29T15:13:21;4.06;3.22;
62631;PMS5003;48703;51.248;-0.546;2022-12-29T15:16:21;1.11;1.04;
62631;PMS5003;48703;51.248;-0.546;2022-12-29T15:19:21;1.56;1.56;
62631;PMS5003;48703;51.248;-0.546;2022-12-29T15:22:23;3.27;1.91;
62631;PMS5003;48703;51.248;-0.546;2022-12-29T15:25:25;2.03;1.77;
62631;PMS5003;48703;51.248;-0.546;2022-12-29T15:28:27;4.27;3.57;
62631;PMS5003;48703;51.248;-0.546;2022-12-29T15:31:28;1.34;1.34;
62631;PMS5003;48703;51.248;-0.546;2022-12-29T15:34:30;4.31;2.64;
62631;PMS5003;48703;51.248;-0.546;2022-12-29T15:37:32;3.66;2.13;
62631;PMS5003;48703;51.248;-0.546;2022-12-29T15:40:33;2.13;1.50;
62631;PMS5003;48703;51.248;-0.546;2022-12-29T15:43:38;4.01;3.83;
62631;PMS5003;48703;51.248;-0.546;2022-12-29T15:46:36;1.94;1.94;
62631;PMS5003;48703;51.248;-0.546;2022-12-29T15:49:38;3.11;2.29;
62631;PMS5003;48703;51.248;-0.546;2022-12-29T15:52:40;2.47;2.14;
62631;PMS5003;48703;51.248;-0.546;2022-12-29T15:55:41;4.70;3.51;
62631;PMS5003;48703;51.248;-0.546;2022-12-29T15:58:43;3.19;2.19;
62631;PMS5003;48703;51.248;-0.546;2022-12-29T16:01:44;4.19;2.13;
62631;PMS5003;48703;51.248;-0.546;2022-12-29T16:04:45;4.99;3.62;
62631;PMS5003;48703;51.248;-0.546;2022-12-29T16:07:52;3.43;2.51;
62631;PMS5003;48703;51.248;-0.546;2022-12-29T16:10:48;3.89;2.49;
62631;PMS5003;48703;51.248;-0.546;2022-12-29T16:13:50;2.73;2.14;
62631;PMS5003;48703;51.248;-0.546;2022-12-29T16:16:52;3.73;1.74;
62631;PMS5003;48703;51.248;-0.546;2022-12-29T16:19:54;3.54;2.91;
62631;PMS5003;48703;51.248;-0.546;2022-12-29T16:22:56;4.11;3.33;
62631;PMS5003;48703;51.248;-0.546;2022-12-29T16:25:57;6.96;5.66;
62631;PMS5003;48703;51.248;-0.546;2022-12-29T16:28:59;4.79;4.09;
62631;PMS5003;48703;51.248;-0.546;2022-12-29T16:32:01;9.16;7.36;
62631;PMS5003;48703;51.248;-0.546;2022-12-29T16:35:07;8.34;7.67;
62631;PMS5003;48703;51.248;-0.546;2022-12-29T16:38:11;8.13;7.31;
62631;PMS5003;48703;51.248;-0.546;2022-12-29T16:41:05;5.90;5.17;
62631;PMS5003;48703;51.248;-0.546;2022-12-29T16:44:16;6.30;5.52;
62631;PMS5003;48703;51.248;-0.546;2022-12-29T16:47:16;6.20;3.83;
62631;PMS5003;48703;51.248;-0.546;2022-12-29T16:50:10;4.17;3.69;
62631;PMS5003;48703;51.248;-0.546;2022-12-29T16:53:16;3.81;3.74;
62631;PMS5003;48703;51.248;-0.546;2022-12-29T16:56:13;4.11;2.99;
62631;PMS5003;48703;51.248;-0.546;2022-12-29T16:59:19;4.37;2.83;
62631;PMS5003;48703;51.248;-0.546;2022-12-29T17:02:16;4.34;3.34;
62631;PMS5003;48703;51.248;-0.546;2022-12-29T17:05:18;4.41;3.83;
62631;PMS5003;48703;51.248;-0.546;2022-12-29T17:08:20;4.83;2.88;
62631;PMS5003;48703;51.248;-0.546;2022-12-29T17:11:22;3.67;2.30;
62631;PMS5003;48703;51.248;-0.546;2022-12-29T17:14:25;3.27;2.84;
62631;PMS5003;48703;51.248;-0.546;2022-12-29T17:17:27;4.44;3.39;
62631;PMS5003;48703;51.248;-0.546;2022-12-29T17:20:26;4.50;2.94;
62631;PMS5003;48703;51.248;-0.546;2022-12-29T17:23:27;4.89;3.91;
62631;PMS5003;48703;51.248;-0.546;2022-12-29T17:26:29;4.63;3.57;
62631;PMS5003;48703;51.248;-0.546;2022-12-29T17:29:31;3.49;3.17;
62631;PMS5003;48703;51.248;-0.546;2022-12-29T17:32:32;3.70;3.67;
62631;PMS5003;48703;51.248;-0.546;2022-12-29T17:35:34;4.29;3.57;
62631;PMS5003;48703;51.248;-0.546;2022-12-29T17:38:36;4.01;2.47;
62631;PMS5003;48703;51.248;-0.546;2022-12-29T17:41:37;4.04;3.46;
62631;PMS5003;48703;51.248;-0.546;2022-12-29T17:44:39;4.81;4.70;
62631;PMS5003;48703;51.248;-0.546;2022-12-29T17:47:40;6.59;5.36;
62631;PMS5003;48703;51.248;-0.546;2022-12-29T17:50:42;7.44;4.54;
62631;PMS5003;48703;51.248;-0.546;2022-12-29T17:53:44;6.43;4.41;
62631;PMS5003;48703;51.248;-0.546;2022-12-29T17:56:45;4.89;4.24;
62631;PMS5003;48703;51.248;-0.546;2022-12-29T17:59:47;6.44;5.67;
62631;PMS5003;48703;51.248;-0.546;2022-12-29T18:02:49;6.69;5.39;
62631;PMS5003;48703;51.248;-0.546;2022-12-29T18:05:50;8.45;7.72;
62631;PMS5003;48703;51.248;-0.546;2022-12-29T18:08:52;11.39;8.93;
62631;PMS5003;48703;51.248;-0.546;2022-12-29T18:11:54;13.01;11.46;
62631;PMS5003;48703;51.248;-0.546;2022-12-29T18:14:55;13.43;11.99;
62631;PMS5003;48703;51.248;-0.546;2022-12-29T18:17:58;11.93;9.24;
62631;PMS5003;48703;51.248;-0.546;2022-12-29T18:20:59;9.96;9.39;
62631;PMS5003;48703;51.248;-0.546;2022-12-29T18:24:00;11.30;8.86;
62631;PMS5003;48703;51.248;-0.546;2022-12-29T18:27:08;10.29;8.43;
62631;PMS5003;48703;51.248;-0.546;2022-12-29T18:30:04;9.96;7.99;
62631;PMS5003;48703;51.248;-0.546;2022-12-29T18:33:05;8.61;7.79;